Time;durP1;ratioP1;P1;durP2;ratioP2;P2;SDS_P1;SDS_P2;PMS_P1;PMS_P2;Temp;Humidity;BMP_temperature;BMP_pressure;BME280_temperature;BME280_humidity;BME280_pressure;Samples;Min_cycle;Max_cycle;Signal;HPM_P1;HPM_P2
2021/09/27 00:01:38;;;;;;;39.17;15.43;;;;;;;;;;5024851;28;20558;-58
2021/09/27 00:04:05;;;;;;;35.25;15.73;;;;;;;;;;5025412;28;20100;-55
2021/09/27 00:06:31;;;;;;;32.72;18.00;;;;;;;;;;5024220;28;20033;-59
2021/09/27 00:08:59;;;;;;;35.25;19.30;;;;;;;;;;5024454;28;20025;-57
2021/09/27 00:11:27;;;;;;;48.33;23.70;;;;;;;;;;5024610;28;20040;-59
2021/09/27 00:13:55;;;;;;;51.63;23.50;;;;;;;;;;5025394;28;20025;-56
2021/09/27 00:16:23;;;;;;;30.75;15.02;;;;;;;;;;5022242;28;20499;-56
2021/09/27 00:18:49;;;;;;;38.78;14.45;;;;;;;;;;5022262;28;20026;-53
2021/09/27 00:21:22;;;;;;;35.08;15.98;;;;;;;;;;5022136;28;20517;-59
2021/09/27 00:23:49;;;;;;;40.72;18.48;;;;;;;;;;5021697;28;20095;-55
2021/09/27 00:26:16;;;;;;;27.85;13.27;;;;;;;;;;5022289;28;20025;-60
2021/09/27 00:28:42;;;;;;;28.40;12.88;;;;;;;;;;5022184;28;20025;-61
2021/09/27 00:31:09;;;;;;;33.47;12.05;;;;;;;;;;5021838;28;20489;-61
2021/09/27 00:33:35;;;;;;;30.85;13.48;;;;;;;;;;5022025;28;20025;-60
2021/09/27 00:36:01;;;;;;;34.80;15.10;;;;;;;;;;5022098;28;20954;-57
2021/09/27 00:38:27;;;;;;;28.38;14.55;;;;;;;;;;5024011;28;20104;-56
2021/09/27 00:40:58;;;;;;;36.67;16.63;;;;;;;;;;5022101;28;20036;-58
2021/09/27 00:43:25;;;;;;;33.20;17.30;;;;;;;;;;5021993;28;20052;-57
2021/09/27 00:45:53;;;;;;;36.85;15.60;;;;;;;;;;5021680;28;20025;-55
2021/09/27 00:48:20;;;;;;;32.10;14.95;;;;;;;;;;5021884;28;20063;-60
2021/09/27 00:50:47;;;;;;;43.10;15.50;;;;;;;;;;5052176;28;20057;-56
2021/09/27 00:53:40;;;;;;;29.15;15.98;;;;;;;;;;5053787;28;20071;-57
2021/09/27 00:56:07;;;;;;;30.77;15.32;;;;;;;;;;5045545;28;20040;-56
2021/09/27 00:58:33;;;;;;;32.42;14.57;;;;;;;;;;5053806;28;20381;-57
2021/09/27 01:01:00;;;;;;;33.17;14.88;;;;;;;;;;5053947;28;20112;-63
2021/09/27 01:03:26;;;;;;;47.22;18.38;;;;;;;;;;5053500;28;20036;-56
2021/09/27 01:06:01;;;;;;;40.35;19.33;;;;;;;;;;5053442;28;20500;-57
2021/09/27 01:08:39;;;;;;;66.65;27.20;;;;;;;;;;5053455;28;20393;-58
2021/09/27 01:11:08;;;;;;;53.05;21.85;;;;;;;;;;5053220;28;20500;-60
2021/09/27 01:13:40;;;;;;;55.22;23.83;;;;;;;;;;5053505;28;20083;-62
2021/09/27 01:16:12;;;;;;;55.92;21.27;;;;;;;;;;5053111;28;20473;-58
2021/09/27 01:18:59;;;;;;;75.18;44.10;;;;;;;;;;5053358;28;20041;-59
2021/09/27 01:21:33;;;;;;;58.08;32.42;;;;;;;;;;5053243;28;20021;-60
2021/09/27 01:23:59;;;;;;;49.28;27.52;;;;;;;;;;5053288;28;20048;-60
2021/09/27 01:26:28;;;;;;;65.57;34.92;;;;;;;;;;5053152;28;20021;-56
2021/09/27 01:28:54;;;;;;;52.40;30.67;;;;;;;;;;5053284;28;20068;-59
2021/09/27 01:31:23;;;;;;;62.83;33.55;;;;;;;;;;5053048;28;20037;-60
2021/09/27 01:33:58;;;;;;;84.50;44.15;;;;;;;;;;5054920;28;20469;-65
2021/09/27 01:36:59;;;;;;;46.25;25.58;;;;;;;;;;5057277;28;20033;-58
2021/09/27 01:39:44;;;;;;;52.45;27.60;;;;;;;;;;5035299;28;20022;-61
2021/09/27 01:42:15;;;;;;;37.85;20.70;;;;;;;;;;5035421;28;20038;-58
2021/09/27 01:44:51;;;;;;;45.45;22.63;;;;;;;;;;5034974;28;20029;-56
2021/09/27 01:47:24;;;;;;;40.10;20.67;;;;;;;;;;5035160;28;20056;-58
2021/09/27 01:49:53;;;;;;;36.03;16.85;;;;;;;;;;5035145;28;20386;-57
2021/09/27 01:52:28;;;;;;;33.15;15.93;;;;;;;;;;5034839;28;20395;-57
2021/09/27 01:55:11;;;;;;;40.53;18.15;;;;;;;;;;5034952;28;20176;-57
2021/09/27 01:57:37;;;;;;;30.50;14.38;;;;;;;;;;5034907;28;20405;-53
2021/09/27 02:00:21;;;;;;;23.85;13.15;;;;;;;;;;5034910;28;20064;-55
2021/09/27 02:03:06;;;;;;;35.25;16.25;;;;;;;;;;5034866;28;20417;-55
2021/09/27 02:05:32;;;;;;;34.85;15.82;;;;;;;;;;5034763;28;20033;-55
2021/09/27 02:08:00;;;;;;;38.13;16.50;;;;;;;;;;5035042;28;20108;-55
2021/09/27 02:10:30;;;;;;;41.65;17.30;;;;;;;;;;5034611;28;20093;-55
2021/09/27 02:13:00;;;;;;;38.67;18.95;;;;;;;;;;5041016;28;20128;-55
2021/09/27 02:15:31;;;;;;;38.92;17.60;;;;;;;;;;5056615;28;20385;-55
2021/09/27 02:18:02;;;;;;;43.03;17.90;;;;;;;;;;5056706;28;20033;-54
2021/09/27 02:20:31;;;;;;;54.50;20.27;;;;;;;;;;5056437;28;20021;-55
2021/09/27 02:23:09;;;;;;;53.40;22.95;;;;;;;;;;5057014;28;20029;-56
2021/09/27 02:25:37;;;;;;;52.47;22.73;;;;;;;;;;5056689;28;20048;-55
2021/09/27 02:28:11;;;;;;;50.08;21.90;;;;;;;;;;5056606;28;20373;-55
2021/09/27 02:30:56;;;;;;;47.42;21.75;;;;;;;;;;5056406;28;20416;-55
2021/09/27 02:33:41;;;;;;;51.47;22.83;;;;;;;;;;5056428;28;20040;-55
2021/09/27 02:36:09;;;;;;;66.35;28.58;;;;;;;;;;5056362;28;20027;-55
2021/09/27 02:38:54;;;;;;;74.75;27.88;;;;;;;;;;5056420;28;20449;-56
2021/09/27 02:41:20;;;;;;;75.03;26.70;;;;;;;;;;5056134;28;20082;-56
2021/09/27 02:43:51;;;;;;;65.60;25.75;;;;;;;;;;5056278;28;20032;-54
2021/09/27 02:46:18;;;;;;;67.93;26.20;;;;;;;;;;5055735;28;20400;-55
2021/09/27 02:49:28;;;;;;;66.28;25.75;;;;;;;;;;5056229;28;20041;-55
2021/09/27 02:51:34;;;;;;;61.20;23.37;;;;;;;;;;5052979;28;20044;-55
2021/09/27 02:54:00;;;;;;;56.58;22.73;;;;;;;;;;5056436;28;20027;-53
2021/09/27 02:56:26;;;;;;;54.10;21.33;;;;;;;;;;5056007;28;20354;-55
2021/09/27 02:59:18;;;;;;;53.45;20.30;;;;;;;;;;5055982;28;20437;-54
2021/09/27 03:01:47;;;;;;;53.10;19.27;;;;;;;;;;5056049;28;20029;-53
2021/09/27 03:04:27;;;;;;;54.63;20.60;;;;;;;;;;5055814;28;20024;-54
2021/09/27 03:07:23;;;;;;;41.50;18.17;;;;;;;;;;5056178;28;20036;-54
2021/09/27 03:10:06;;;;;;;48.45;18.63;;;;;;;;;;5033959;28;20033;-54
2021/09/27 03:12:35;;;;;;;44.33;17.52;;;;;;;;;;5033739;28;20041;-54
2021/09/27 03:15:04;;;;;;;42.33;16.77;;;;;;;;;;5033572;28;20033;-54
2021/09/27 03:17:48;;;;;;;45.42;18.20;;;;;;;;;;5034070;28;20033;-54
2021/09/27 03:20:20;;;;;;;35.47;16.73;;;;;;;;;;5033374;28;20490;-56
2021/09/27 03:22:50;;;;;;;45.20;17.40;;;;;;;;;;5033604;28;20060;-55
2021/09/27 03:25:19;;;;;;;55.13;19.07;;;;;;;;;;5033129;28;20046;-54
2021/09/27 03:28:03;;;;;;;51.75;19.65;;;;;;;;;;5033375;28;20397;-54
2021/09/27 03:30:52;;;;;;;37.85;19.20;;;;;;;;;;5033207;28;20021;-54
2021/09/27 03:33:20;;;;;;;57.10;20.90;;;;;;;;;;5033337;28;20489;-54
2021/09/27 03:36:04;;;;;;;52.70;21.73;;;;;;;;;;5032965;28;20053;-54
2021/09/27 03:38:39;;;;;;;46.25;19.25;;;;;;;;;;5033579;28;20481;-54
2021/09/27 03:41:23;;;;;;;45.05;19.20;;;;;;;;;;5033307;28;20052;-54
2021/09/27 03:44:07;;;;;;;43.45;18.55;;;;;;;;;;5032968;28;20041;-54
2021/09/27 03:46:49;;;;;;;41.80;16.77;;;;;;;;;;5044806;28;20389;-54
2021/09/27 03:49:25;;;;;;;33.72;15.63;;;;;;;;;;5054996;28;20021;-55
2021/09/27 03:51:53;;;;;;;33.22;15.70;;;;;;;;;;5055039;28;20496;-55
2021/09/27 03:54:27;;;;;;;30.90;14.27;;;;;;;;;;5054687;28;20032;-56
2021/09/27 03:56:58;;;;;;;40.95;15.80;;;;;;;;;;5054412;28;20111;-55
2021/09/27 03:59:30;;;;;;;36.63;15.77;;;;;;;;;;5054908;28;20036;-54
2021/09/27 04:02:05;;;;;;;36.50;16.40;;;;;;;;;;5054737;28;20029;-57
2021/09/27 04:04:40;;;;;;;32.90;15.57;;;;;;;;;;5054681;28;20544;-56
2021/09/27 04:07:18;;;;;;;33.65;14.77;;;;;;;;;;5050372;28;20025;-56
2021/09/27 04:09:44;;;;;;;28.15;12.93;;;;;;;;;;5054648;28;20546;-58
2021/09/27 04:12:14;;;;;;;28.35;13.63;;;;;;;;;;5054676;28;20072;-57
2021/09/27 04:15:01;;;;;;;28.95;12.52;;;;;;;;;;5054374;28;20044;-55
2021/09/27 04:17:33;;;;;;;30.40;14.10;;;;;;;;;;5054442;28;20067;-55
2021/09/27 04:20:07;;;;;;;31.70;17.88;;;;;;;;;;5054460;28;20025;-51
2021/09/27 04:22:44;;;;;;;42.65;23.45;;;;;;;;;;5054489;28;20029;-50
2021/09/27 04:25:15;;;;;;;26.33;14.07;;;;;;;;;;5053939;28;20051;-53
2021/09/27 04:27:44;;;;;;;46.65;26.30;;;;;;;;;;5054203;28;20477;-51
2021/09/27 04:30:11;;;;;;;38.42;19.85;;;;;;;;;;5054065;28;20025;-50
2021/09/27 04:32:37;;;;;;;33.85;17.75;;;;;;;;;;5053914;28;20083;-52
2021/09/27 04:35:03;;;;;;;55.55;26.48;;;;;;;;;;5053850;28;20033;-51
2021/09/27 04:37:31;;;;;;;54.63;25.75;;;;;;;;;;5053983;28;20100;-51
2021/09/27 04:40:00;;;;;;;32.55;14.85;;;;;;;;;;5053960;28;20507;-52
2021/09/27 04:42:46;;;;;;;50.10;19.30;;;;;;;;;;5053891;28;20051;-52
2021/09/27 04:45:20;;;;;;;56.83;24.20;;;;;;;;;;5053804;28;20021;-53
2021/09/27 04:47:49;;;;;;;35.75;20.48;;;;;;;;;;5053964;28;20055;-51
2021/09/27 04:50:33;;;;;;;36.33;16.15;;;;;;;;;;5053597;28;20091;-57
2021/09/27 04:53:31;;;;;;;59.38;26.63;;;;;;;;;;5053643;28;20523;-56
2021/09/27 04:56:09;;;;;;;47.85;20.73;;;;;;;;;;5011569;28;20473;-53
2021/09/27 04:58:36;;;;;;;52.25;24.25;;;;;;;;;;5012124;28;20050;-53
2021/09/27 05:01:30;;;;;;;48.90;23.38;;;;;;;;;;5011811;28;20034;-51
2021/09/27 05:04:12;;;;;;;49.35;24.70;;;;;;;;;;4915483;29;20036;-50
2021/09/27 05:06:44;;;;;;;46.83;22.73;;;;;;;;;;4915529;29;20046;-55
2021/09/27 05:09:10;;;;;;;79.78;38.30;;;;;;;;;;4914878;29;20051;-58
2021/09/27 05:11:54;;;;;;;56.47;27.67;;;;;;;;;;4915283;29;20058;-58
2021/09/27 05:14:34;;;;;;;101.68;50.55;;;;;;;;;;4915032;29;20463;-58
2021/09/27 05:17:15;;;;;;;70.50;37.45;;;;;;;;;;4915092;29;20028;-58
2021/09/27 05:19:43;;;;;;;61.55;29.77;;;;;;;;;;4915128;29;20040;-58
2021/09/27 05:22:18;;;;;;;40.47;21.83;;;;;;;;;;4915116;29;20040;-59
2021/09/27 05:25:03;;;;;;;34.38;18.48;;;;;;;;;;4915235;29;20556;-59
2021/09/27 05:27:47;;;;;;;41.55;18.02;;;;;;;;;;4915120;29;20055;-60
2021/09/27 05:30:32;;;;;;;70.68;31.83;;;;;;;;;;4915427;29;20159;-60
2021/09/27 05:33:01;;;;;;;43.42;24.40;;;;;;;;;;4972666;28;20039;-60
2021/09/27 05:35:42;;;;;;;37.00;19.08;;;;;;;;;;4956223;28;20063;-60
2021/09/27 05:38:11;;;;;;;52.35;29.23;;;;;;;;;;4972539;28;20035;-60
2021/09/27 05:40:56;;;;;;;37.33;19.90;;;;;;;;;;5009262;28;20029;-60
2021/09/27 05:43:22;;;;;;;48.92;25.48;;;;;;;;;;5053234;28;20100;-60
2021/09/27 05:46:06;;;;;;;58.22;29.42;;;;;;;;;;5053072;28;20029;-60
2021/09/27 05:48:33;;;;;;;74.07;35.35;;;;;;;;;;5052867;28;20350;-58
2021/09/27 05:51:02;;;;;;;79.38;44.67;;;;;;;;;;5052895;28;20031;-61
2021/09/27 05:53:29;;;;;;;35.97;18.17;;;;;;;;;;5052843;28;20033;-60
2021/09/27 05:55:55;;;;;;;35.67;16.77;;;;;;;;;;5053115;28;20580;-60
2021/09/27 05:58:38;;;;;;;34.85;15.50;;;;;;;;;;5052917;28;20489;-60
2021/09/27 06:01:23;;;;;;;43.60;22.05;;;;;;;;;;5053076;28;20060;-59
2021/09/27 06:04:08;;;;;;;29.73;16.92;;;;;;;;;;5052858;28;20025;-60
2021/09/27 06:06:42;;;;;;;30.55;15.75;;;;;;;;;;5052932;28;20393;-59
2021/09/27 06:09:11;;;;;;;32.42;15.68;;;;;;;;;;5052924;28;20448;-59
2021/09/27 06:12:00;;;;;;;30.75;14.20;;;;;;;;;;5052654;28;20415;-58
2021/09/27 06:14:26;;;;;;;32.20;14.18;;;;;;;;;;5052910;28;20025;-59
2021/09/27 06:16:55;;;;;;;27.95;13.88;;;;;;;;;;5052976;28;20029;-58
2021/09/27 06:19:30;;;;;;;27.17;13.00;;;;;;;;;;5052862;28;20048;-61
2021/09/27 06:22:05;;;;;;;24.45;12.60;;;;;;;;;;5055958;28;20104;-58
2021/09/27 06:24:49;;;;;;;25.48;13.20;;;;;;;;;;5056390;28;20053;-58
2021/09/27 06:27:30;;;;;;;51.80;30.40;;;;;;;;;;5056720;28;20037;-58
2021/09/27 06:30:02;;;;;;;27.80;15.63;;;;;;;;;;5056740;28;20029;-58
2021/09/27 06:32:35;;;;;;;29.80;14.27;;;;;;;;;;5056305;28;20064;-59
2021/09/27 06:35:03;;;;;;;30.02;13.85;;;;;;;;;;5056339;28;20025;-59
2021/09/27 06:37:29;;;;;;;47.00;26.60;;;;;;;;;;5056249;28;20096;-59
2021/09/27 06:39:58;;;;;;;29.70;14.95;;;;;;;;;;5056460;28;20029;-59
2021/09/27 06:42:24;;;;;;;24.30;13.82;;;;;;;;;;5056329;28;20515;-59
2021/09/27 06:44:52;;;;;;;30.02;15.32;;;;;;;;;;5056553;28;20059;-59
2021/09/27 06:47:21;;;;;;;30.55;16.20;;;;;;;;;;5056023;28;20029;-58
2021/09/27 06:49:47;;;;;;;28.40;14.55;;;;;;;;;;5056117;28;20024;-58
2021/09/27 06:52:13;;;;;;;33.45;15.23;;;;;;;;;;5056280;28;20078;-60
2021/09/27 06:54:39;;;;;;;24.98;15.13;;;;;;;;;;5057383;28;20029;-59
2021/09/27 06:57:06;;;;;;;24.13;16.85;;;;;;;;;;5056400;28;20057;-59
2021/09/27 06:59:32;;;;;;;27.17;17.52;;;;;;;;;;5056331;28;20087;-58
2021/09/27 07:01:58;;;;;;;38.38;21.40;;;;;;;;;;5056189;28;20021;-58
2021/09/27 07:04:24;;;;;;;51.33;26.70;;;;;;;;;;5055544;28;20400;-58
2021/09/27 07:06:50;;;;;;;46.38;25.13;;;;;;;;;;5055811;28;20083;-58
2021/09/27 07:09:17;;;;;;;48.15;24.40;;;;;;;;;;5055923;28;20138;-58
2021/09/27 07:11:43;;;;;;;72.68;40.22;;;;;;;;;;5055642;28;20033;-60
2021/09/27 07:14:10;;;;;;;60.78;39.20;;;;;;;;;;5055731;28;20025;-59
2021/09/27 07:16:37;;;;;;;74.22;44.38;;;;;;;;;;5055733;28;20017;-58
2021/09/27 07:19:06;;;;;;;53.40;35.78;;;;;;;;;;5055462;28;20373;-57
2021/09/27 07:21:33;;;;;;;43.40;27.38;;;;;;;;;;5055659;28;20052;-58
2021/09/27 07:23:59;;;;;;;33.70;23.80;;;;;;;;;;5055529;28;20083;-58
2021/09/27 07:26:27;;;;;;;27.75;18.67;;;;;;;;;;5055221;28;20037;-58
2021/09/27 07:28:56;;;;;;;31.88;22.02;;;;;;;;;;5055339;28;20021;-58
2021/09/27 07:31:24;;;;;;;24.73;14.70;;;;;;;;;;5054964;28;20033;-58
2021/09/27 07:33:53;;;;;;;25.17;16.48;;;;;;;;;;5055949;28;20029;-58
2021/09/27 07:36:19;;;;;;;22.35;14.35;;;;;;;;;;5055333;28;20013;-59
2021/09/27 07:38:45;;;;;;;25.38;16.80;;;;;;;;;;5055222;28;20381;-59
2021/09/27 07:41:11;;;;;;;30.77;17.80;;;;;;;;;;5055220;28;20021;-60
2021/09/27 07:43:37;;;;;;;32.85;18.55;;;;;;;;;;5055090;28;20055;-58
2021/09/27 07:46:03;;;;;;;34.83;22.85;;;;;;;;;;5054829;28;20029;-58
2021/09/27 07:48:29;;;;;;;44.08;25.83;;;;;;;;;;5055363;28;20029;-57
2021/09/27 07:50:56;;;;;;;32.80;21.95;;;;;;;;;;5055018;28;20037;-57
2021/09/27 07:53:23;;;;;;;39.55;23.73;;;;;;;;;;5054742;28;20106;-57
2021/09/27 07:55:50;;;;;;;54.20;29.88;;;;;;;;;;5055112;28;20040;-59
2021/09/27 07:58:19;;;;;;;49.78;25.27;;;;;;;;;;5054680;28;20060;-60
2021/09/27 08:00:46;;;;;;;63.95;25.75;;;;;;;;;;5054761;28;20370;-59
2021/09/27 08:03:12;;;;;;;45.67;22.00;;;;;;;;;;5054564;28;20108;-59
2021/09/27 08:05:39;;;;;;;43.05;20.33;;;;;;;;;;5054466;28;20025;-59
2021/09/27 08:08:05;;;;;;;23.05;14.32;;;;;;;;;;5054420;28;20025;-58
2021/09/27 08:10:33;;;;;;;22.92;11.77;;;;;;;;;;5054384;28;20029;-58
2021/09/27 08:12:59;;;;;;;20.33;10.65;;;;;;;;;;5054153;28;20078;-59
2021/09/27 08:15:32;;;;;;;26.55;11.55;;;;;;;;;;5054147;28;20033;-59
2021/09/27 08:17:59;;;;;;;11.70;9.00;;;;;;;;;;5054176;28;20039;-59
2021/09/27 08:20:28;;;;;;;21.88;12.50;;;;;;;;;;5054110;28;20042;-59
2021/09/27 08:22:54;;;;;;;24.55;10.63;;;;;;;;;;5054228;28;20036;-59
2021/09/27 08:25:22;;;;;;;24.23;12.40;;;;;;;;;;5053942;28;20037;-58
2021/09/27 08:27:51;;;;;;;18.08;9.48;;;;;;;;;;5054122;28;20477;-56
2021/09/27 08:30:26;;;;;;;23.73;14.73;;;;;;;;;;5053926;28;20361;-59
2021/09/27 08:32:52;;;;;;;18.58;8.43;;;;;;;;;;5053881;28;20473;-60
2021/09/27 08:35:19;;;;;;;30.85;15.43;;;;;;;;;;5053814;28;20078;-61
2021/09/27 08:37:46;;;;;;;24.90;12.20;;;;;;;;;;5054011;28;20108;-62
2021/09/27 08:40:30;;;;;;;53.50;28.80;;;;;;;;;;5053873;28;20074;-58
2021/09/27 08:42:56;;;;;;;63.83;35.35;;;;;;;;;;5053058;28;20040;-58
2021/09/27 08:45:25;;;;;;;29.05;15.88;;;;;;;;;;5054038;28;20473;-60
2021/09/27 08:48:06;;;;;;;41.60;20.13;;;;;;;;;;5053904;28;20036;-60
2021/09/27 08:50:35;;;;;;;36.53;18.38;;;;;;;;;;5053803;28;20043;-58
2021/09/27 08:53:05;;;;;;;27.83;14.77;;;;;;;;;;5053675;28;20032;-58
2021/09/27 08:55:31;;;;;;;43.25;21.30;;;;;;;;;;5053574;28;20104;-59
2021/09/27 08:58:02;;;;;;;32.63;14.13;;;;;;;;;;5053473;28;20033;-55
2021/09/27 09:00:40;;;;;;;22.80;9.50;;;;;;;;;;5052285;28;20465;-54
2021/09/27 09:03:25;;;;;;;28.15;9.98;;;;;;;;;;5053466;28;20045;-55
2021/09/27 09:06:10;;;;;;;30.95;19.02;;;;;;;;;;5053355;28;20025;-56
2021/09/27 09:08:39;;;;;;;49.08;28.17;;;;;;;;;;5053392;28;20021;-55
2021/09/27 09:11:24;;;;;;;51.67;21.52;;;;;;;;;;5053478;28;20020;-58
2021/09/27 09:14:01;;;;;;;34.40;15.05;;;;;;;;;;5053411;28;20044;-56
2021/09/27 09:16:28;;;;;;;25.83;12.07;;;;;;;;;;5053657;28;20021;-54
2021/09/27 09:19:00;;;;;;;31.83;12.23;;;;;;;;;;5053367;28;20024;-54
2021/09/27 09:21:32;;;;;;;156.93;72.30;;;;;;;;;;5053198;28;20078;-59
2021/09/27 09:24:01;;;;;;;87.30;44.72;;;;;;;;;;5053228;28;20053;-55
2021/09/27 09:26:33;;;;;;;39.10;17.50;;;;;;;;;;5053658;28;20033;-54
2021/09/27 09:28:59;;;;;;;102.82;51.22;;;;;;;;;;5053231;28;20101;-54
2021/09/27 09:31:33;;;;;;;23.55;9.77;;;;;;;;;;5053248;28;20025;-54
2021/09/27 09:34:19;;;;;;;22.73;12.43;;;;;;;;;;5053054;28;20033;-54
2021/09/27 09:36:46;;;;;;;63.65;31.33;;;;;;;;;;5053106;28;20453;-54
2021/09/27 09:39:12;;;;;;;28.58;15.10;;;;;;;;;;5053618;28;20032;-54
2021/09/27 09:41:43;;;;;;;16.25;6.78;;;;;;;;;;5052939;28;20373;-57
2021/09/27 09:44:37;;;;;;;14.20;6.65;;;;;;;;;;5053060;28;20039;-56
2021/09/27 09:47:06;;;;;;;23.85;8.57;;;;;;;;;;5053178;28;20103;-57
2021/09/27 09:49:52;;;;;;;10.73;5.10;;;;;;;;;;5053034;28;20101;-57
2021/09/27 09:52:25;;;;;;;51.30;25.17;;;;;;;;;;5052942;28;20037;-55
2021/09/27 09:54:51;;;;;;;16.40;6.50;;;;;;;;;;5054768;28;20021;-56
2021/09/27 09:57:25;;;;;;;17.92;7.30;;;;;;;;;;5056852;28;20033;-55
2021/09/27 09:59:58;;;;;;;10.43;5.93;;;;;;;;;;5056961;28;20446;-55
2021/09/27 10:02:24;;;;;;;13.15;5.43;;;;;;;;;;5057047;28;20029;-56
2021/09/27 10:04:55;;;;;;;13.05;6.07;;;;;;;;;;5056695;28;20045;-55
2021/09/27 10:07:26;;;;;;;21.52;8.45;;;;;;;;;;5056664;28;20029;-57
2021/09/27 10:09:55;;;;;;;;;;;;;;;;;;5057448;28;20025;-57
2021/09/27 10:12:36;;;;;;;20.73;7.13;;;;;;;;;;5056716;28;19920;-55
2021/09/27 10:15:03;;;;;;;17.25;5.32;;;;;;;;;;5056562;28;20025;-54
2021/09/27 10:17:35;;;;;;;15.45;6.22;;;;;;;;;;5057056;28;20105;-54
2021/09/27 10:20:10;;;;;;;16.60;5.72;;;;;;;;;;5056657;28;20013;-54
2021/09/27 10:22:39;;;;;;;11.75;5.80;;;;;;;;;;5056548;28;20021;-54
2021/09/27 10:25:27;;;;;;;13.80;5.82;;;;;;;;;;5056341;28;20083;-56
2021/09/27 10:27:54;;;;;;;14.95;5.85;;;;;;;;;;5056370;28;20040;-56
2021/09/27 10:30:23;;;;;;;11.93;6.10;;;;;;;;;;5056282;28;20472;-56
2021/09/27 10:32:53;;;;;;;14.70;5.40;;;;;;;;;;5056213;28;20473;-55
2021/09/27 10:35:40;;;;;;;11.93;5.05;;;;;;;;;;5056311;28;20065;-55
2021/09/27 10:38:09;;;;;;;13.30;5.63;;;;;;;;;;5056145;28;20143;-53
2021/09/27 10:40:35;;;;;;;17.75;6.28;;;;;;;;;;5056007;28;20022;-53
2021/09/27 10:43:02;;;;;;;19.15;5.68;;;;;;;;;;5056585;28;20025;-57
2021/09/27 10:45:29;;;;;;;17.55;7.97;;;;;;;;;;5056393;28;20078;-55
2021/09/27 10:47:56;;;;;;;12.95;5.63;;;;;;;;;;5056163;28;20032;-55
2021/09/27 10:50:28;;;;;;;16.70;5.25;;;;;;;;;;5055920;28;20020;-55
2021/09/27 10:52:54;;;;;;;10.93;5.53;;;;;;;;;;5055588;28;20021;-55
2021/09/27 10:55:26;;;;;;;15.80;5.47;;;;;;;;;;5055768;28;20123;-56
2021/09/27 10:58:02;;;;;;;13.55;5.28;;;;;;;;;;5055745;28;20067;-54
2021/09/27 11:00:46;;;;;;;18.15;6.35;;;;;;;;;;5055917;28;20056;-55
2021/09/27 11:03:17;;;;;;;9.15;5.88;;;;;;;;;;5055632;28;20044;-52
2021/09/27 11:05:50;;;;;;;11.27;5.75;;;;;;;;;;5055139;28;20101;-53
2021/09/27 11:08:30;;;;;;;15.32;6.28;;;;;;;;;;5055837;28;20385;-52
2021/09/27 11:10:56;;;;;;;15.32;5.25;;;;;;;;;;5056070;28;20418;-53
2021/09/27 11:13:44;;;;;;;13.93;5.53;;;;;;;;;;5055687;28;20040;-52
2021/09/27 11:16:12;;;;;;;16.65;6.20;;;;;;;;;;5055491;28;20028;-55
2021/09/27 11:18:39;;;;;;;17.98;7.80;;;;;;;;;;5055455;28;20025;-53
2021/09/27 11:21:17;;;;;;;12.88;6.45;;;;;;;;;;5055357;28;20056;-53
2021/09/27 11:23:45;;;;;;;17.10;7.05;;;;;;;;;;5055269;28;20052;-56
2021/09/27 11:26:20;;;;;;;31.33;10.30;;;;;;;;;;5056391;28;20033;-53
2021/09/27 11:29:15;;;;;;;21.75;12.68;;;;;;;;;;5055989;28;20087;-55
2021/09/27 11:31:42;;;;;;;47.65;25.58;;;;;;;;;;5053679;28;20040;-55
2021/09/27 11:34:31;;;;;;;62.05;36.38;;;;;;;;;;5055057;28;20033;-55
2021/09/27 11:37:23;;;;;;;33.25;20.27;;;;;;;;;;5055194;28;20219;-53
2021/09/27 11:39:54;;;;;;;29.05;15.63;;;;;;;;;;5053108;28;20503;-53
2021/09/27 11:42:20;;;;;;;;;;;;;;;;;;5055765;28;20354;-54
2021/09/27 11:44:52;;;;;;;18.75;7.22;;;;;;;;;;5054891;28;19911;-55
2021/09/27 11:47:31;;;;;;;124.63;22.42;;;;;;;;;;5054831;28;20021;-53
2021/09/27 11:50:09;;;;;;;59.75;12.90;;;;;;;;;;5054959;28;20078;-54
2021/09/27 11:52:54;;;;;;;19.65;7.80;;;;;;;;;;5054846;28;20036;-56
2021/09/27 11:55:32;;;;;;;21.30;8.77;;;;;;;;;;5054635;28;20108;-52
2021/09/27 11:58:18;;;;;;;14.45;6.30;;;;;;;;;;5054646;28;20381;-53
2021/09/27 12:01:04;;;;;;;22.58;13.23;;;;;;;;;;5054730;28;20039;-52
2021/09/27 12:03:49;;;;;;;12.23;6.57;;;;;;;;;;5054699;28;20029;-54
2021/09/27 12:06:15;;;;;;;17.52;8.60;;;;;;;;;;5054605;28;20087;-56
2021/09/27 12:08:57;;;;;;;24.58;15.00;;;;;;;;;;5054601;28;20025;-57
2021/09/27 12:11:23;;;;;;;15.68;7.97;;;;;;;;;;5054713;28;20036;-52
2021/09/27 12:13:55;;;;;;;17.58;7.78;;;;;;;;;;5054543;28;20044;-52
2021/09/27 12:16:27;;;;;;;12.13;6.07;;;;;;;;;;5054496;28;20025;-52
2021/09/27 12:18:59;;;;;;;46.20;26.10;;;;;;;;;;5053298;28;20113;-52
2021/09/27 12:21:54;;;;;;;66.53;49.03;;;;;;;;;;5054212;28;20017;-52
2021/09/27 12:24:22;;;;;;;37.95;20.52;;;;;;;;;;5012437;28;20576;-52
2021/09/27 12:26:51;;;;;;;19.13;11.93;;;;;;;;;;5012521;28;20171;-53
2021/09/27 12:29:24;;;;;;;21.63;13.25;;;;;;;;;;5012357;28;20121;-53
2021/09/27 12:31:58;;;;;;;50.53;34.85;;;;;;;;;;5012519;28;20058;-53
2021/09/27 12:34:29;;;;;;;26.40;17.02;;;;;;;;;;5012327;28;20042;-53
2021/09/27 12:36:57;;;;;;;19.15;11.02;;;;;;;;;;5011230;28;20042;-56
2021/09/27 12:39:24;;;;;;;24.60;11.65;;;;;;;;;;5010870;28;20050;-53
2021/09/27 12:41:51;;;;;;;27.70;13.18;;;;;;;;;;5010571;28;20049;-57
2021/09/27 12:44:26;;;;;;;14.45;6.20;;;;;;;;;;5010619;28;20013;-57
2021/09/27 12:46:53;;;;;;;10.20;5.50;;;;;;;;;;5010571;28;20026;-54
2021/09/27 12:49:25;;;;;;;29.08;18.02;;;;;;;;;;5010592;28;20040;-54
2021/09/27 12:51:54;;;;;;;61.60;44.00;;;;;;;;;;5010399;28;20552;-54
2021/09/27 12:54:27;;;;;;;46.50;26.38;;;;;;;;;;5011795;28;20042;-54
2021/09/27 12:56:54;;;;;;;25.60;11.65;;;;;;;;;;5011649;28;20030;-51
2021/09/27 12:59:25;;;;;;;31.00;18.90;;;;;;;;;;5012141;28;20034;-54
2021/09/27 13:01:57;;;;;;;29.50;15.13;;;;;;;;;;5052051;28;20036;-55
2021/09/27 13:04:31;;;;;;;17.83;9.48;;;;;;;;;;5053825;28;20025;-54
2021/09/27 13:07:04;;;;;;;22.98;12.90;;;;;;;;;;5053713;28;20045;-56
2021/09/27 13:09:32;;;;;;;15.18;8.57;;;;;;;;;;5053419;28;20037;-54
2021/09/27 13:12:17;;;;;;;29.50;14.77;;;;;;;;;;5053482;28;20029;-56
2021/09/27 13:14:46;;;;;;;53.53;32.63;;;;;;;;;;5053570;28;20038;-54
2021/09/27 13:17:17;;;;;;;56.03;30.90;;;;;;;;;;5053310;28;20028;-58
2021/09/27 13:19:44;;;;;;;50.10;29.45;;;;;;;;;;5053234;28;20035;-54
2021/09/27 13:22:22;;;;;;;44.83;25.40;;;;;;;;;;5053159;28;20025;-54
2021/09/27 13:24:50;;;;;;;192.30;120.72;;;;;;;;;;5053088;28;20068;-57
2021/09/27 13:27:22;;;;;;;43.00;25.65;;;;;;;;;;5053375;28;20036;-58
2021/09/27 13:29:53;;;;;;;53.33;30.27;;;;;;;;;;5053338;28;20021;-58
2021/09/27 13:32:24;;;;;;;38.20;22.15;;;;;;;;;;5053117;28;20094;-55
2021/09/27 13:34:50;;;;;;;;;;;;;;;;;;5052561;28;20029;-56
2021/09/27 13:37:27;;;;;;;59.42;36.55;;;;;;;;;;5051812;28;19908;-55
2021/09/27 13:39:55;;;;;;;51.58;29.05;;;;;;;;;;5051837;28;20090;-55
2021/09/27 13:42:40;;;;;;;54.25;29.02;;;;;;;;;;5051812;28;20021;-57
2021/09/27 13:45:06;;;;;;;56.20;30.85;;;;;;;;;;5050667;28;20037;-56
2021/09/27 13:47:32;;;;;;;54.75;31.65;;;;;;;;;;5051871;28;20388;-55
2021/09/27 13:49:58;;;;;;;51.38;28.25;;;;;;;;;;5051623;28;20021;-58
2021/09/27 13:52:30;;;;;;;21.17;9.05;;;;;;;;;;5052838;28;20465;-53
2021/09/27 13:54:56;;;;;;;46.83;25.20;;;;;;;;;;5052819;28;20025;-54
2021/09/27 13:57:22;;;;;;;26.77;13.43;;;;;;;;;;5052888;28;20112;-53
2021/09/27 13:59:49;;;;;;;48.70;27.17;;;;;;;;;;5052886;28;20162;-54
2021/09/27 14:02:15;;;;;;;40.70;25.45;;;;;;;;;;5052998;28;20100;-54
2021/09/27 14:04:41;;;;;;;48.13;29.83;;;;;;;;;;5052813;28;20029;-54
2021/09/27 14:07:07;;;;;;;51.20;29.27;;;;;;;;;;5052728;28;20028;-55
2021/09/27 14:09:33;;;;;;;30.63;19.40;;;;;;;;;;5052831;28;20037;-53
2021/09/27 14:11:59;;;;;;;47.15;28.15;;;;;;;;;;5052706;28;20028;-53
2021/09/27 14:14:27;;;;;;;62.47;37.35;;;;;;;;;;5052616;28;20075;-55
2021/09/27 14:16:53;;;;;;;142.30;82.85;;;;;;;;;;5052498;28;20021;-56
2021/09/27 14:19:20;;;;;;;65.07;35.80;;;;;;;;;;5052727;28;20039;-54
2021/09/27 14:21:46;;;;;;;56.08;28.65;;;;;;;;;;5052656;28;20469;-54
2021/09/27 14:24:12;;;;;;;69.20;40.08;;;;;;;;;;5052589;28;20045;-54
2021/09/27 14:26:38;;;;;;;67.82;39.17;;;;;;;;;;5052531;28;20029;-54
2021/09/27 14:29:04;;;;;;;98.90;56.17;;;;;;;;;;5052563;28;20104;-59
2021/09/27 14:31:30;;;;;;;61.03;36.28;;;;;;;;;;5052471;28;20028;-53
2021/09/27 14:33:56;;;;;;;66.82;40.97;;;;;;;;;;5052461;28;20071;-55
2021/09/27 14:36:23;;;;;;;92.68;58.42;;;;;;;;;;5052673;28;20469;-57
2021/09/27 14:38:49;;;;;;;45.65;24.95;;;;;;;;;;5052357;28;20504;-57
2021/09/27 14:41:16;;;;;;;35.33;21.40;;;;;;;;;;5052803;28;20028;-57
2021/09/27 14:43:43;;;;;;;54.63;34.05;;;;;;;;;;5055610;28;20082;-56
2021/09/27 14:46:09;;;;;;;46.90;25.27;;;;;;;;;;5053018;28;20040;-56
2021/09/27 14:48:36;;;;;;;39.42;22.05;;;;;;;;;;5055558;28;20025;-55
2021/09/27 14:51:02;;;;;;;65.88;37.40;;;;;;;;;;5055698;28;20025;-56